sensor_id;sensor_type;location;lat;lon;timestamp;P1;durP1;ratioP1;P2;durP2;ratioP2
1328;SDS011;658;48.820;9.354;2024-03-17T00:03:00;1.50;;;1.40;;
1328;SDS011;658;48.820;9.354;2024-03-17T00:07:03;1.10;;;1.10;;
1328;SDS011;658;48.820;9.354;2024-03-17T00:11:07;1.27;;;1.20;;
1328;SDS011;658;48.820;9.354;2024-03-17T00:15:08;1.40;;;1.30;;
1328;SDS011;658;48.820;9.354;2024-03-17T00:19:08;1.37;;;1.30;;
1328;SDS011;658;48.820;9.354;2024-03-17T00:23:10;1.50;;;1.40;;
1328;SDS011;658;48.820;9.354;2024-03-17T00:27:11;1.40;;;1.30;;
1328;SDS011;658;48.820;9.354;2024-03-17T00:31:13;0.90;;;0.90;;
1328;SDS011;658;48.820;9.354;2024-03-17T00:35:17;1.30;;;1.20;;
1328;SDS011;658;48.820;9.354;2024-03-17T00:39:20;1.20;;;1.10;;
1328;SDS011;658;48.820;9.354;2024-03-17T00:43:21;1.27;;;1.17;;
1328;SDS011;658;48.820;9.354;2024-03-17T00:47:21;1.97;;;1.87;;
1328;SDS011;658;48.820;9.354;2024-03-17T00:51:25;1.27;;;1.17;;
1328;SDS011;658;48.820;9.354;2024-03-17T00:55:25;1.23;;;1.13;;
1328;SDS011;658;48.820;9.354;2024-03-17T00:59:28;1.30;;;1.30;;
1328;SDS011;658;48.820;9.354;2024-03-17T01:03:31;1.07;;;1.07;;
1328;SDS011;658;48.820;9.354;2024-03-17T01:07:32;1.40;;;1.30;;
1328;SDS011;658;48.820;9.354;2024-03-17T01:11:34;1.23;;;1.20;;
1328;SDS011;658;48.820;9.354;2024-03-17T01:15:37;1.60;;;1.50;;
1328;SDS011;658;48.820;9.354;2024-03-17T01:19:39;1.20;;;1.10;;
1328;SDS011;658;48.820;9.354;2024-03-17T01:23:40;1.33;;;1.30;;
1328;SDS011;658;48.820;9.354;2024-03-17T01:27:40;1.50;;;1.40;;
1328;SDS011;658;48.820;9.354;2024-03-17T01:31:41;1.40;;;1.30;;
1328;SDS011;658;48.820;9.354;2024-03-17T01:35:44;1.00;;;1.00;;
1328;SDS011;658;48.820;9.354;2024-03-17T01:39:47;1.67;;;1.57;;
1328;SDS011;658;48.820;9.354;2024-03-17T01:43:49;1.10;;;1.10;;
1328;SDS011;658;48.820;9.354;2024-03-17T01:47:50;1.20;;;1.20;;
1328;SDS011;658;48.820;9.354;2024-03-17T01:51:50;1.20;;;1.20;;
1328;SDS011;658;48.820;9.354;2024-03-17T01:55:52;1.17;;;1.17;;
1328;SDS011;658;48.820;9.354;2024-03-17T01:59:56;1.20;;;1.20;;
1328;SDS011;658;48.820;9.354;2024-03-17T02:03:58;1.27;;;1.20;;
1328;SDS011;658;48.820;9.354;2024-03-17T02:07:59;1.47;;;1.37;;
1328;SDS011;658;48.820;9.354;2024-03-17T02:12:02;1.17;;;1.17;;
1328;SDS011;658;48.820;9.354;2024-03-17T02:16:03;1.37;;;1.30;;
1328;SDS011;658;48.820;9.354;2024-03-17T02:20:04;1.07;;;1.00;;
1328;SDS011;658;48.820;9.354;2024-03-17T02:24:07;1.33;;;1.30;;
1328;SDS011;658;48.820;9.354;2024-03-17T02:28:08;1.20;;;1.20;;
1328;SDS011;658;48.820;9.354;2024-03-17T02:32:09;1.20;;;1.10;;
1328;SDS011;658;48.820;9.354;2024-03-17T02:36:09;1.30;;;1.20;;
1328;SDS011;658;48.820;9.354;2024-03-17T02:40:11;1.60;;;1.50;;
1328;SDS011;658;48.820;9.354;2024-03-17T02:44:12;1.10;;;1.10;;
1328;SDS011;658;48.820;9.354;2024-03-17T02:48:13;1.13;;;1.13;;
1328;SDS011;658;48.820;9.354;2024-03-17T02:52:13;1.30;;;1.30;;
1328;SDS011;658;48.820;9.354;2024-03-17T02:56:17;1.50;;;1.40;;
1328;SDS011;658;48.820;9.354;2024-03-17T03:00:18;1.30;;;1.20;;
1328;SDS011;658;48.820;9.354;2024-03-17T03:04:20;1.40;;;1.30;;
1328;SDS011;658;48.820;9.354;2024-03-17T03:08:20;1.60;;;1.50;;
1328;SDS011;658;48.820;9.354;2024-03-17T03:12:23;1.10;;;1.10;;
1328;SDS011;658;48.820;9.354;2024-03-17T03:16:24;1.33;;;1.23;;
1328;SDS011;658;48.820;9.354;2024-03-17T03:20:27;1.60;;;1.50;;
1328;SDS011;658;48.820;9.354;2024-03-17T03:24:28;1.50;;;1.43;;
1328;SDS011;658;48.820;9.354;2024-03-17T03:28:32;1.60;;;1.50;;
1328;SDS011;658;48.820;9.354;2024-03-17T03:32:33;1.60;;;1.50;;
1328;SDS011;658;48.820;9.354;2024-03-17T03:36:38;1.53;;;1.43;;
1328;SDS011;658;48.820;9.354;2024-03-17T03:40:40;1.60;;;1.50;;
1328;SDS011;658;48.820;9.354;2024-03-17T03:44:41;1.23;;;1.17;;
1328;SDS011;658;48.820;9.354;2024-03-17T03:48:43;1.30;;;1.20;;
1328;SDS011;658;48.820;9.354;2024-03-17T03:52:43;1.20;;;1.13;;
1328;SDS011;658;48.820;9.354;2024-03-17T03:56:46;1.07;;;1.07;;
1328;SDS011;658;48.820;9.354;2024-03-17T04:00:49;1.30;;;1.20;;
1328;SDS011;658;48.820;9.354;2024-03-17T04:04:50;1.53;;;1.43;;
1328;SDS011;658;48.820;9.354;2024-03-17T04:08:53;1.30;;;1.20;;
1328;SDS011;658;48.820;9.354;2024-03-17T04:12:53;1.17;;;1.17;;
1328;SDS011;658;48.820;9.354;2024-03-17T04:16:54;0.93;;;0.93;;
1328;SDS011;658;48.820;9.354;2024-03-17T04:20:55;1.13;;;1.13;;
1328;SDS011;658;48.820;9.354;2024-03-17T04:24:56;1.10;;;1.10;;
1328;SDS011;658;48.820;9.354;2024-03-17T04:28:57;1.10;;;1.10;;
1328;SDS011;658;48.820;9.354;2024-03-17T04:33:00;1.10;;;1.00;;
1328;SDS011;658;48.820;9.354;2024-03-17T04:37:01;1.13;;;1.13;;
1328;SDS011;658;48.820;9.354;2024-03-17T04:41:03;0.97;;;0.97;;
1328;SDS011;658;48.820;9.354;2024-03-17T04:45:05;1.23;;;1.23;;
1328;SDS011;658;48.820;9.354;2024-03-17T04:49:07;0.93;;;0.93;;
1328;SDS011;658;48.820;9.354;2024-03-17T04:53:08;1.40;;;1.30;;
1328;SDS011;658;48.820;9.354;2024-03-17T04:57:09;1.10;;;1.10;;
1328;SDS011;658;48.820;9.354;2024-03-17T05:01:10;1.03;;;1.03;;
1328;SDS011;658;48.820;9.354;2024-03-17T05:05:10;1.17;;;1.17;;
1328;SDS011;658;48.820;9.354;2024-03-17T05:09:11;1.00;;;1.00;;
1328;SDS011;658;48.820;9.354;2024-03-17T05:13:14;0.90;;;0.90;;
1328;SDS011;658;48.820;9.354;2024-03-17T05:17:17;1.20;;;1.20;;
1328;SDS011;658;48.820;9.354;2024-03-17T05:21:18;1.10;;;1.10;;
1328;SDS011;658;48.820;9.354;2024-03-17T05:25:18;1.30;;;1.30;;
1328;SDS011;658;48.820;9.354;2024-03-17T05:29:19;0.80;;;0.80;;
1328;SDS011;658;48.820;9.354;2024-03-17T05:33:22;1.10;;;1.10;;
1328;SDS011;658;48.820;9.354;2024-03-17T05:37:25;0.93;;;0.93;;
1328;SDS011;658;48.820;9.354;2024-03-17T05:41:27;1.00;;;1.00;;
1328;SDS011;658;48.820;9.354;2024-03-17T05:45:28;1.30;;;1.20;;
1328;SDS011;658;48.820;9.354;2024-03-17T05:49:28;1.23;;;1.20;;
1328;SDS011;658;48.820;9.354;2024-03-17T05:53:31;1.07;;;1.07;;
1328;SDS011;658;48.820;9.354;2024-03-17T05:57:32;0.90;;;0.90;;
1328;SDS011;658;48.820;9.354;2024-03-17T06:01:32;0.80;;;0.80;;
1328;SDS011;658;48.820;9.354;2024-03-17T06:05:33;1.00;;;1.00;;
1328;SDS011;658;48.820;9.354;2024-03-17T06:09:35;1.03;;;1.03;;
1328;SDS011;658;48.820;9.354;2024-03-17T06:13:35;0.70;;;0.70;;
1328;SDS011;658;48.820;9.354;2024-03-17T06:17:36;0.93;;;0.93;;
1328;SDS011;658;48.820;9.354;2024-03-17T06:21:37;1.10;;;1.10;;
1328;SDS011;658;48.820;9.354;2024-03-17T06:29:44;1.00;;;1.00;;
1328;SDS011;658;48.820;9.354;2024-03-17T06:33:45;1.10;;;1.10;;
1328;SDS011;658;48.820;9.354;2024-03-17T06:37:46;1.00;;;0.90;;
1328;SDS011;658;48.820;9.354;2024-03-17T06:41:48;0.97;;;0.97;;
1328;SDS011;658;48.820;9.354;2024-03-17T06:45:55;1.00;;;1.00;;
1328;SDS011;658;48.820;9.354;2024-03-17T06:50:00;0.80;;;0.80;;
1328;SDS011;658;48.820;9.354;2024-03-17T06:54:01;0.80;;;0.80;;
1328;SDS011;658;48.820;9.354;2024-03-17T06:58:03;0.90;;;0.90;;
1328;SDS011;658;48.820;9.354;2024-03-17T07:02:04;0.87;;;0.87;;
1328;SDS011;658;48.820;9.354;2024-03-17T07:06:05;0.80;;;0.80;;
1328;SDS011;658;48.820;9.354;2024-03-17T07:10:07;0.70;;;0.70;;
1328;SDS011;658;48.820;9.354;2024-03-17T07:14:08;1.20;;;1.10;;
1328;SDS011;658;48.820;9.354;2024-03-17T07:18:09;0.87;;;0.87;;
1328;SDS011;658;48.820;9.354;2024-03-17T07:22:09;0.70;;;0.70;;
1328;SDS011;658;48.820;9.354;2024-03-17T07:26:10;0.90;;;0.90;;
1328;SDS011;658;48.820;9.354;2024-03-17T07:30:11;0.77;;;0.77;;
1328;SDS011;658;48.820;9.354;2024-03-17T07:34:11;0.90;;;0.90;;
1328;SDS011;658;48.820;9.354;2024-03-17T07:38:14;0.83;;;0.83;;
1328;SDS011;658;48.820;9.354;2024-03-17T07:42:15;0.77;;;0.77;;
1328;SDS011;658;48.820;9.354;2024-03-17T07:46:16;2.50;;;1.10;;
1328;SDS011;658;48.820;9.354;2024-03-17T07:50:17;0.97;;;0.97;;
1328;SDS011;658;48.820;9.354;2024-03-17T07:54:17;0.80;;;0.80;;
1328;SDS011;658;48.820;9.354;2024-03-17T07:58:19;1.17;;;0.93;;
1328;SDS011;658;48.820;9.354;2024-03-17T08:02:20;0.87;;;0.87;;
1328;SDS011;658;48.820;9.354;2024-03-17T08:06:23;1.00;;;1.00;;
1328;SDS011;658;48.820;9.354;2024-03-17T08:10:24;1.00;;;1.00;;
1328;SDS011;658;48.820;9.354;2024-03-17T08:14:27;1.13;;;1.03;;
1328;SDS011;658;48.820;9.354;2024-03-17T08:18:28;1.00;;;1.00;;
1328;SDS011;658;48.820;9.354;2024-03-17T08:22:28;0.90;;;0.90;;
1328;SDS011;658;48.820;9.354;2024-03-17T08:26:30;0.93;;;0.93;;
1328;SDS011;658;48.820;9.354;2024-03-17T08:30:30;0.97;;;0.97;;
1328;SDS011;658;48.820;9.354;2024-03-17T08:34:31;1.40;;;1.30;;
1328;SDS011;658;48.820;9.354;2024-03-17T08:38:32;1.00;;;1.00;;
1328;SDS011;658;48.820;9.354;2024-03-17T08:42:33;1.50;;;1.40;;
1328;SDS011;658;48.820;9.354;2024-03-17T08:46:36;0.90;;;0.90;;
1328;SDS011;658;48.820;9.354;2024-03-17T08:50:37;0.80;;;0.80;;
1328;SDS011;658;48.820;9.354;2024-03-17T08:54:37;1.00;;;1.00;;
1328;SDS011;658;48.820;9.354;2024-03-17T08:58:40;1.00;;;1.00;;
1328;SDS011;658;48.820;9.354;2024-03-17T09:02:41;1.03;;;1.03;;
1328;SDS011;658;48.820;9.354;2024-03-17T09:06:42;1.10;;;1.10;;
1328;SDS011;658;48.820;9.354;2024-03-17T09:10:43;1.30;;;1.30;;
1328;SDS011;658;48.820;9.354;2024-03-17T09:14:46;1.60;;;1.50;;
1328;SDS011;658;48.820;9.354;2024-03-17T09:18:48;1.67;;;1.40;;
1328;SDS011;658;48.820;9.354;2024-03-17T09:22:51;1.50;;;1.40;;
1328;SDS011;658;48.820;9.354;2024-03-17T09:26:52;1.07;;;1.07;;
1328;SDS011;658;48.820;9.354;2024-03-17T09:30:53;1.30;;;1.20;;
1328;SDS011;658;48.820;9.354;2024-03-17T09:34:55;1.27;;;1.20;;
1328;SDS011;658;48.820;9.354;2024-03-17T09:38:55;1.40;;;1.30;;
1328;SDS011;658;48.820;9.354;2024-03-17T09:42:56;1.43;;;1.37;;
1328;SDS011;658;48.820;9.354;2024-03-17T09:46:59;1.50;;;1.40;;
1328;SDS011;658;48.820;9.354;2024-03-17T09:51:02;1.07;;;1.00;;
1328;SDS011;658;48.820;9.354;2024-03-17T09:55:08;1.43;;;1.33;;
1328;SDS011;658;48.820;9.354;2024-03-17T09:59:09;1.30;;;1.30;;
1328;SDS011;658;48.820;9.354;2024-03-17T10:03:38;1.27;;;1.27;;
1328;SDS011;658;48.820;9.354;2024-03-17T10:08:20;1.10;;;1.10;;
1328;SDS011;658;48.820;9.354;2024-03-17T10:12:28;1.20;;;1.10;;
1328;SDS011;658;48.820;9.354;2024-03-17T10:16:32;1.47;;;1.37;;
1328;SDS011;658;48.820;9.354;2024-03-17T10:20:34;1.47;;;1.37;;
1328;SDS011;658;48.820;9.354;2024-03-17T10:24:34;1.30;;;1.20;;
1328;SDS011;658;48.820;9.354;2024-03-17T10:28:35;1.53;;;0.97;;
1328;SDS011;658;48.820;9.354;2024-03-17T10:32:36;1.00;;;1.00;;
1328;SDS011;658;48.820;9.354;2024-03-17T10:36:37;1.60;;;1.33;;
1328;SDS011;658;48.820;9.354;2024-03-17T10:40:41;12.63;;;2.80;;
1328;SDS011;658;48.820;9.354;2024-03-17T10:44:41;1.80;;;1.40;;
1328;SDS011;658;48.820;9.354;2024-03-17T10:48:45;1.63;;;1.10;;
1328;SDS011;658;48.820;9.354;2024-03-17T10:52:48;4.43;;;2.80;;
1328;SDS011;658;48.820;9.354;2024-03-17T10:56:52;3.07;;;2.00;;
1328;SDS011;658;48.820;9.354;2024-03-17T11:00:55;2.47;;;1.50;;
1328;SDS011;658;48.820;9.354;2024-03-17T11:04:57;1.60;;;1.50;;
1328;SDS011;658;48.820;9.354;2024-03-17T11:08:59;1.90;;;1.20;;
1328;SDS011;658;48.820;9.354;2024-03-17T11:13:00;4.50;;;1.83;;
1328;SDS011;658;48.820;9.354;2024-03-17T11:17:16;3.07;;;1.57;;
1328;SDS011;658;48.820;9.354;2024-03-17T11:21:19;5.20;;;1.47;;
1328;SDS011;658;48.820;9.354;2024-03-17T11:29:30;1.40;;;1.30;;
1328;SDS011;658;48.820;9.354;2024-03-17T11:37:41;3.13;;;1.90;;
1328;SDS011;658;48.820;9.354;2024-03-17T11:41:43;3.70;;;2.00;;
1328;SDS011;658;48.820;9.354;2024-03-17T11:45:50;4.87;;;1.80;;
1328;SDS011;658;48.820;9.354;2024-03-17T11:49:55;2.37;;;1.60;;
1328;SDS011;658;48.820;9.354;2024-03-17T11:53:57;1.97;;;1.83;;
1328;SDS011;658;48.820;9.354;2024-03-17T11:57:58;5.90;;;2.07;;
1328;SDS011;658;48.820;9.354;2024-03-17T12:02:00;2.80;;;1.77;;
1328;SDS011;658;48.820;9.354;2024-03-17T12:06:02;2.80;;;1.63;;
1328;SDS011;658;48.820;9.354;2024-03-17T12:10:04;1.97;;;1.77;;
1328;SDS011;658;48.820;9.354;2024-03-17T12:14:21;3.63;;;1.57;;
1328;SDS011;658;48.820;9.354;2024-03-17T12:18:22;1.50;;;1.40;;
1328;SDS011;658;48.820;9.354;2024-03-17T12:22:23;1.87;;;1.70;;
1328;SDS011;658;48.820;9.354;2024-03-17T12:26:26;3.90;;;1.73;;
1328;SDS011;658;48.820;9.354;2024-03-17T12:30:26;2.23;;;1.40;;
1328;SDS011;658;48.820;9.354;2024-03-17T12:34:28;1.60;;;1.20;;
1328;SDS011;658;48.820;9.354;2024-03-17T12:38:32;3.37;;;1.47;;
1328;SDS011;658;48.820;9.354;2024-03-17T12:42:33;1.13;;;1.07;;
1328;SDS011;658;48.820;9.354;2024-03-17T12:46:37;1.00;;;1.00;;
1328;SDS011;658;48.820;9.354;2024-03-17T12:50:44;1.03;;;1.00;;
1328;SDS011;658;48.820;9.354;2024-03-17T12:54:45;1.67;;;1.50;;
1328;SDS011;658;48.820;9.354;2024-03-17T12:59:19;1.20;;;1.10;;
1328;SDS011;658;48.820;9.354;2024-03-17T13:03:38;3.23;;;1.50;;
1328;SDS011;658;48.820;9.354;2024-03-17T13:07:40;1.40;;;1.10;;
1328;SDS011;658;48.820;9.354;2024-03-17T13:11:41;1.67;;;1.40;;
1328;SDS011;658;48.820;9.354;2024-03-17T13:15:41;1.30;;;1.20;;
1328;SDS011;658;48.820;9.354;2024-03-17T13:19:45;1.63;;;1.40;;
1328;SDS011;658;48.820;9.354;2024-03-17T13:23:49;1.50;;;1.40;;
1328;SDS011;658;48.820;9.354;2024-03-17T13:27:50;2.03;;;1.53;;
1328;SDS011;658;48.820;9.354;2024-03-17T13:31:51;1.87;;;1.50;;
1328;SDS011;658;48.820;9.354;2024-03-17T13:35:51;1.43;;;1.33;;
1328;SDS011;658;48.820;9.354;2024-03-17T13:39:53;3.03;;;1.93;;
1328;SDS011;658;48.820;9.354;2024-03-17T13:43:53;1.47;;;1.20;;
1328;SDS011;658;48.820;9.354;2024-03-17T13:47:57;1.93;;;1.50;;
1328;SDS011;658;48.820;9.354;2024-03-17T13:52:00;4.00;;;1.57;;
1328;SDS011;658;48.820;9.354;2024-03-17T13:56:04;1.40;;;1.30;;
1328;SDS011;658;48.820;9.354;2024-03-17T14:00:05;1.90;;;1.33;;
1328;SDS011;658;48.820;9.354;2024-03-17T14:04:08;1.40;;;1.30;;
1328;SDS011;658;48.820;9.354;2024-03-17T14:08:13;1.70;;;1.60;;
1328;SDS011;658;48.820;9.354;2024-03-17T14:12:14;1.70;;;1.33;;
1328;SDS011;658;48.820;9.354;2024-03-17T14:16:14;2.43;;;1.63;;
1328;SDS011;658;48.820;9.354;2024-03-17T14:20:15;1.80;;;1.70;;
1328;SDS011;658;48.820;9.354;2024-03-17T14:24:18;1.83;;;1.47;;
1328;SDS011;658;48.820;9.354;2024-03-17T14:28:18;3.07;;;1.40;;
1328;SDS011;658;48.820;9.354;2024-03-17T14:32:19;1.50;;;1.40;;
1328;SDS011;658;48.820;9.354;2024-03-17T14:36:20;2.37;;;1.40;;
1328;SDS011;658;48.820;9.354;2024-03-17T14:40:26;1.50;;;1.40;;
1328;SDS011;658;48.820;9.354;2024-03-17T14:44:29;1.20;;;1.10;;
1328;SDS011;658;48.820;9.354;2024-03-17T14:48:32;1.83;;;1.50;;
1328;SDS011;658;48.820;9.354;2024-03-17T14:52:34;1.53;;;1.40;;
1328;SDS011;658;48.820;9.354;2024-03-17T14:56:35;2.97;;;1.27;;
1328;SDS011;658;48.820;9.354;2024-03-17T15:00:36;1.83;;;1.60;;
1328;SDS011;658;48.820;9.354;2024-03-17T15:04:38;1.33;;;1.10;;
1328;SDS011;658;48.820;9.354;2024-03-17T15:08:38;1.17;;;1.07;;
1328;SDS011;658;48.820;9.354;2024-03-17T15:12:39;1.23;;;1.10;;
1328;SDS011;658;48.820;9.354;2024-03-17T15:16:42;1.67;;;1.47;;
1328;SDS011;658;48.820;9.354;2024-03-17T15:20:44;1.10;;;1.10;;
1328;SDS011;658;48.820;9.354;2024-03-17T15:24:52;2.20;;;1.17;;
1328;SDS011;658;48.820;9.354;2024-03-17T15:28:53;1.03;;;1.00;;
1328;SDS011;658;48.820;9.354;2024-03-17T15:32:53;1.80;;;1.10;;
1328;SDS011;658;48.820;9.354;2024-03-17T15:36:54;1.00;;;1.00;;
1328;SDS011;658;48.820;9.354;2024-03-17T15:40:55;2.33;;;1.30;;
1328;SDS011;658;48.820;9.354;2024-03-17T15:44:55;1.57;;;1.43;;
1328;SDS011;658;48.820;9.354;2024-03-17T15:48:56;1.73;;;1.27;;
1328;SDS011;658;48.820;9.354;2024-03-17T15:52:58;1.67;;;1.10;;
1328;SDS011;658;48.820;9.354;2024-03-17T15:56:58;2.83;;;1.30;;
1328;SDS011;658;48.820;9.354;2024-03-17T16:00:59;1.50;;;1.20;;
1328;SDS011;658;48.820;9.354;2024-03-17T16:05:05;1.70;;;1.20;;
1328;SDS011;658;48.820;9.354;2024-03-17T16:09:12;1.43;;;1.33;;
1328;SDS011;658;48.820;9.354;2024-03-17T16:13:14;2.30;;;1.13;;
1328;SDS011;658;48.820;9.354;2024-03-17T16:17:15;1.20;;;1.10;;
1328;SDS011;658;48.820;9.354;2024-03-17T16:21:16;0.90;;;0.90;;
1328;SDS011;658;48.820;9.354;2024-03-17T16:25:19;1.13;;;1.10;;
1328;SDS011;658;48.820;9.354;2024-03-17T16:29:21;4.73;;;1.70;;
1328;SDS011;658;48.820;9.354;2024-03-17T16:33:23;2.03;;;1.30;;
1328;SDS011;658;48.820;9.354;2024-03-17T16:37:26;2.47;;;1.00;;
1328;SDS011;658;48.820;9.354;2024-03-17T16:41:31;1.67;;;1.30;;
1328;SDS011;658;48.820;9.354;2024-03-17T16:45:32;2.47;;;1.00;;
1328;SDS011;658;48.820;9.354;2024-03-17T16:49:38;1.10;;;1.00;;
1328;SDS011;658;48.820;9.354;2024-03-17T16:53:42;1.93;;;0.90;;
1328;SDS011;658;48.820;9.354;2024-03-17T16:57:43;1.33;;;0.93;;
1328;SDS011;658;48.820;9.354;2024-03-17T17:01:43;1.40;;;1.30;;
1328;SDS011;658;48.820;9.354;2024-03-17T17:05:44;1.40;;;1.10;;
1328;SDS011;658;48.820;9.354;2024-03-17T17:09:45;2.87;;;1.57;;
1328;SDS011;658;48.820;9.354;2024-03-17T17:13:45;2.13;;;1.93;;
1328;SDS011;658;48.820;9.354;2024-03-17T17:17:46;1.50;;;1.40;;
1328;SDS011;658;48.820;9.354;2024-03-17T17:21:53;2.87;;;2.00;;
1328;SDS011;658;48.820;9.354;2024-03-17T17:25:54;2.60;;;1.70;;
1328;SDS011;658;48.820;9.354;2024-03-17T17:29:55;2.40;;;1.60;;
1328;SDS011;658;48.820;9.354;2024-03-17T17:33:58;1.20;;;1.10;;
1328;SDS011;658;48.820;9.354;2024-03-17T17:38:03;1.50;;;1.27;;
1328;SDS011;658;48.820;9.354;2024-03-17T17:42:03;1.67;;;1.10;;
1328;SDS011;658;48.820;9.354;2024-03-17T17:46:07;2.97;;;1.30;;
1328;SDS011;658;48.820;9.354;2024-03-17T17:50:10;1.50;;;1.40;;
1328;SDS011;658;48.820;9.354;2024-03-17T17:54:12;1.20;;;1.10;;
1328;SDS011;658;48.820;9.354;2024-03-17T17:58:13;2.17;;;1.50;;
1328;SDS011;658;48.820;9.354;2024-03-17T18:02:14;2.37;;;1.40;;
1328;SDS011;658;48.820;9.354;2024-03-17T18:06:16;2.17;;;1.87;;
1328;SDS011;658;48.820;9.354;2024-03-17T18:10:17;2.83;;;2.63;;
1328;SDS011;658;48.820;9.354;2024-03-17T18:14:17;7.90;;;7.20;;
1328;SDS011;658;48.820;9.354;2024-03-17T18:18:22;6.77;;;6.17;;
1328;SDS011;658;48.820;9.354;2024-03-17T18:22:22;11.13;;;10.10;;
1328;SDS011;658;48.820;9.354;2024-03-17T18:26:23;10.57;;;9.63;;
1328;SDS011;658;48.820;9.354;2024-03-17T18:30:24;14.30;;;12.13;;
1328;SDS011;658;48.820;9.354;2024-03-17T18:34:25;23.33;;;18.07;;
1328;SDS011;658;48.820;9.354;2024-03-17T18:38:29;19.50;;;17.50;;
1328;SDS011;658;48.820;9.354;2024-03-17T18:42:32;21.17;;;19.03;;
1328;SDS011;658;48.820;9.354;2024-03-17T18:46:33;23.10;;;20.80;;
1328;SDS011;658;48.820;9.354;2024-03-17T18:50:34;17.10;;;15.40;;
1328;SDS011;658;48.820;9.354;2024-03-17T18:54:36;17.87;;;15.07;;
1328;SDS011;658;48.820;9.354;2024-03-17T18:58:37;22.23;;;19.07;;
1328;SDS011;658;48.820;9.354;2024-03-17T19:02:38;15.27;;;13.67;;
1328;SDS011;658;48.820;9.354;2024-03-17T19:06:38;17.13;;;13.73;;
1328;SDS011;658;48.820;9.354;2024-03-17T19:10:39;15.60;;;12.70;;
1328;SDS011;658;48.820;9.354;2024-03-17T19:14:40;17.27;;;14.57;;
1328;SDS011;658;48.820;9.354;2024-03-17T19:18:41;16.70;;;14.80;;
1328;SDS011;658;48.820;9.354;2024-03-17T19:22:42;18.23;;;13.07;;
1328;SDS011;658;48.820;9.354;2024-03-17T19:26:43;13.77;;;12.30;;
1328;SDS011;658;48.820;9.354;2024-03-17T19:30:44;15.20;;;13.30;;
1328;SDS011;658;48.820;9.354;2024-03-17T19:34:54;16.20;;;14.00;;
1328;SDS011;658;48.820;9.354;2024-03-17T19:38:55;15.77;;;12.70;;
1328;SDS011;658;48.820;9.354;2024-03-17T19:42:56;15.80;;;14.10;;
1328;SDS011;658;48.820;9.354;2024-03-17T19:46:57;14.30;;;12.70;;
1328;SDS011;658;48.820;9.354;2024-03-17T19:51:04;13.40;;;11.93;;
1328;SDS011;658;48.820;9.354;2024-03-17T19:55:09;17.00;;;14.07;;
1328;SDS011;658;48.820;9.354;2024-03-17T19:59:10;15.30;;;13.30;;
1328;SDS011;658;48.820;9.354;2024-03-17T20:03:11;14.37;;;12.13;;
1328;SDS011;658;48.820;9.354;2024-03-17T20:07:11;14.33;;;12.37;;
1328;SDS011;658;48.820;9.354;2024-03-17T20:11:12;14.83;;;12.80;;
1328;SDS011;658;48.820;9.354;2024-03-17T20:15:12;15.37;;;12.20;;
1328;SDS011;658;48.820;9.354;2024-03-17T20:19:13;14.47;;;12.87;;
1328;SDS011;658;48.820;9.354;2024-03-17T20:23:15;12.53;;;11.30;;
1328;SDS011;658;48.820;9.354;2024-03-17T20:27:16;14.83;;;12.30;;
1328;SDS011;658;48.820;9.354;2024-03-17T20:31:18;13.77;;;10.87;;
1328;SDS011;658;48.820;9.354;2024-03-17T20:35:22;13.33;;;11.93;;
1328;SDS011;658;48.820;9.354;2024-03-17T20:39:26;13.60;;;11.20;;
1328;SDS011;658;48.820;9.354;2024-03-17T20:43:31;15.67;;;12.03;;
1328;SDS011;658;48.820;9.354;2024-03-17T20:47:31;13.53;;;11.10;;
1328;SDS011;658;48.820;9.354;2024-03-17T20:51:32;13.47;;;10.30;;
1328;SDS011;658;48.820;9.354;2024-03-17T20:55:33;12.33;;;10.30;;
1328;SDS011;658;48.820;9.354;2024-03-17T20:59:33;12.90;;;10.13;;
1328;SDS011;658;48.820;9.354;2024-03-17T21:03:34;10.80;;;9.70;;
1328;SDS011;658;48.820;9.354;2024-03-17T21:07:35;11.57;;;10.23;;
1328;SDS011;658;48.820;9.354;2024-03-17T21:11:36;11.43;;;9.37;;
1328;SDS011;658;48.820;9.354;2024-03-17T21:15:38;11.83;;;9.83;;
1328;SDS011;658;48.820;9.354;2024-03-17T21:19:39;11.90;;;9.87;;
1328;SDS011;658;48.820;9.354;2024-03-17T21:23:39;10.33;;;9.13;;
1328;SDS011;658;48.820;9.354;2024-03-17T21:27:40;10.60;;;9.17;;
1328;SDS011;658;48.820;9.354;2024-03-17T21:31:50;10.23;;;8.73;;
1328;SDS011;658;48.820;9.354;2024-03-17T21:35:52;9.90;;;8.90;;
1328;SDS011;658;48.820;9.354;2024-03-17T21:39:55;9.77;;;8.70;;
1328;SDS011;658;48.820;9.354;2024-03-17T21:43:59;11.00;;;9.30;;
1328;SDS011;658;48.820;9.354;2024-03-17T21:47:59;11.57;;;9.33;;
1328;SDS011;658;48.820;9.354;2024-03-17T21:52:02;7.63;;;6.93;;
1328;SDS011;658;48.820;9.354;2024-03-17T21:56:03;9.60;;;8.60;;
1328;SDS011;658;48.820;9.354;2024-03-17T22:00:05;9.37;;;8.43;;
1328;SDS011;658;48.820;9.354;2024-03-17T22:04:12;10.20;;;7.67;;
1328;SDS011;658;48.820;9.354;2024-03-17T22:08:14;8.47;;;7.67;;
1328;SDS011;658;48.820;9.354;2024-03-17T22:12:15;10.33;;;9.03;;
1328;SDS011;658;48.820;9.354;2024-03-17T22:16:15;7.97;;;7.13;;
1328;SDS011;658;48.820;9.354;2024-03-17T22:20:16;10.80;;;7.30;;
1328;SDS011;658;48.820;9.354;2024-03-17T22:24:17;7.90;;;7.20;;
1328;SDS011;658;48.820;9.354;2024-03-17T22:28:18;7.90;;;7.10;;
1328;SDS011;658;48.820;9.354;2024-03-17T22:32:18;7.90;;;6.70;;
1328;SDS011;658;48.820;9.354;2024-03-17T22:36:21;8.43;;;7.60;;
1328;SDS011;658;48.820;9.354;2024-03-17T22:40:22;7.73;;;7.07;;
1328;SDS011;658;48.820;9.354;2024-03-17T22:44:22;7.97;;;6.50;;
1328;SDS011;658;48.820;9.354;2024-03-17T22:48:23;7.27;;;6.57;;
1328;SDS011;658;48.820;9.354;2024-03-17T22:52:31;8.13;;;6.80;;
1328;SDS011;658;48.820;9.354;2024-03-17T22:56:31;6.43;;;5.63;;
1328;SDS011;658;48.820;9.354;2024-03-17T23:00:32;7.20;;;6.50;;
1328;SDS011;658;48.820;9.354;2024-03-17T23:04:41;7.00;;;6.17;;
1328;SDS011;658;48.820;9.354;2024-03-17T23:08:42;7.20;;;6.50;;
1328;SDS011;658;48.820;9.354;2024-03-17T23:12:42;6.30;;;5.60;;
1328;SDS011;658;48.820;9.354;2024-03-17T23:16:43;7.23;;;6.60;;
1328;SDS011;658;48.820;9.354;2024-03-17T23:20:46;6.80;;;5.90;;
1328;SDS011;658;48.820;9.354;2024-03-17T23:24:47;6.03;;;5.47;;
1328;SDS011;658;48.820;9.354;2024-03-17T23:28:47;5.97;;;5.37;;
1328;SDS011;658;48.820;9.354;2024-03-17T23:32:48;5.63;;;5.23;;
1328;SDS011;658;48.820;9.354;2024-03-17T23:36:49;5.47;;;5.03;;
1328;SDS011;658;48.820;9.354;2024-03-17T23:40:49;5.67;;;5.07;;
1328;SDS011;658;48.820;9.354;2024-03-17T23:44:50;5.83;;;5.07;;
1328;SDS011;658;48.820;9.354;2024-03-17T23:48:50;5.30;;;4.80;;
1328;SDS011;658;48.820;9.354;2024-03-17T23:52:51;4.80;;;4.40;;
1328;SDS011;658;48.820;9.354;2024-03-17T23:56:52;6.03;;;5.40;;
